sensor_id;sensor_type;location;lat;lon;timestamp;P1;durP1;ratioP1;P2;durP2;ratioP2
10277;SDS011;5184;51.376;7.148;2023-05-23T00:00:55;11.20;;;9.53;;
10277;SDS011;5184;51.376;7.148;2023-05-23T00:03:22;10.70;;;9.60;;
10277;SDS011;5184;51.376;7.148;2023-05-23T00:05:48;10.17;;;9.17;;
10277;SDS011;5184;51.376;7.148;2023-05-23T00:08:15;9.93;;;8.00;;
10277;SDS011;5184;51.376;7.148;2023-05-23T00:10:43;9.03;;;8.13;;
10277;SDS011;5184;51.376;7.148;2023-05-23T00:13:10;8.47;;;7.67;;
10277;SDS011;5184;51.376;7.148;2023-05-23T00:15:38;8.47;;;7.57;;
10277;SDS011;5184;51.376;7.148;2023-05-23T00:18:04;9.13;;;7.83;;
10277;SDS011;5184;51.376;7.148;2023-05-23T00:20:31;8.57;;;7.77;;
10277;SDS011;5184;51.376;7.148;2023-05-23T00:22:57;8.13;;;7.33;;
10277;SDS011;5184;51.376;7.148;2023-05-23T00:25:25;8.13;;;7.33;;
10277;SDS011;5184;51.376;7.148;2023-05-23T00:27:52;9.43;;;7.73;;
10277;SDS011;5184;51.376;7.148;2023-05-23T00:30:19;7.87;;;6.90;;
10277;SDS011;5184;51.376;7.148;2023-05-23T00:32:47;7.67;;;6.87;;
10277;SDS011;5184;51.376;7.148;2023-05-23T00:35:14;7.63;;;6.90;;
10277;SDS011;5184;51.376;7.148;2023-05-23T00:37:41;7.07;;;6.40;;
10277;SDS011;5184;51.376;7.148;2023-05-23T00:40:08;7.13;;;6.50;;
10277;SDS011;5184;51.376;7.148;2023-05-23T00:42:35;6.50;;;5.80;;
10277;SDS011;5184;51.376;7.148;2023-05-23T00:45:02;6.20;;;5.60;;
10277;SDS011;5184;51.376;7.148;2023-05-23T00:47:29;5.80;;;5.17;;
10277;SDS011;5184;51.376;7.148;2023-05-23T00:49:56;6.03;;;5.10;;
10277;SDS011;5184;51.376;7.148;2023-05-23T00:52:22;6.13;;;5.13;;
10277;SDS011;5184;51.376;7.148;2023-05-23T00:54:49;5.60;;;4.97;;
10277;SDS011;5184;51.376;7.148;2023-05-23T00:57:16;6.07;;;4.83;;
10277;SDS011;5184;51.376;7.148;2023-05-23T00:59:44;5.53;;;5.03;;
10277;SDS011;5184;51.376;7.148;2023-05-23T01:02:11;5.40;;;4.90;;
10277;SDS011;5184;51.376;7.148;2023-05-23T01:04:38;6.23;;;5.20;;
10277;SDS011;5184;51.376;7.148;2023-05-23T01:07:06;5.90;;;5.30;;
10277;SDS011;5184;51.376;7.148;2023-05-23T01:09:32;6.03;;;5.40;;
10277;SDS011;5184;51.376;7.148;2023-05-23T01:12:09;6.50;;;5.63;;
10277;SDS011;5184;51.376;7.148;2023-05-23T01:14:41;6.80;;;6.20;;
10277;SDS011;5184;51.376;7.148;2023-05-23T01:17:08;6.37;;;5.73;;
10277;SDS011;5184;51.376;7.148;2023-05-23T01:19:41;6.57;;;5.97;;
10277;SDS011;5184;51.376;7.148;2023-05-23T01:22:11;6.33;;;5.70;;
10277;SDS011;5184;51.376;7.148;2023-05-23T01:24:51;6.17;;;5.57;;
10277;SDS011;5184;51.376;7.148;2023-05-23T01:27:21;6.10;;;5.50;;
10277;SDS011;5184;51.376;7.148;2023-05-23T01:29:58;7.33;;;5.43;;
10277;SDS011;5184;51.376;7.148;2023-05-23T01:32:24;6.70;;;5.90;;
10277;SDS011;5184;51.376;7.148;2023-05-23T01:34:51;5.80;;;5.30;;
10277;SDS011;5184;51.376;7.148;2023-05-23T01:37:18;6.77;;;6.17;;
10277;SDS011;5184;51.376;7.148;2023-05-23T01:39:44;7.17;;;6.47;;
10277;SDS011;5184;51.376;7.148;2023-05-23T01:42:12;6.83;;;6.20;;
10277;SDS011;5184;51.376;7.148;2023-05-23T01:44:39;6.43;;;5.83;;
10277;SDS011;5184;51.376;7.148;2023-05-23T01:47:07;6.70;;;6.10;;
10277;SDS011;5184;51.376;7.148;2023-05-23T01:49:33;6.17;;;5.40;;
10277;SDS011;5184;51.376;7.148;2023-05-23T01:52:00;6.10;;;5.50;;
10277;SDS011;5184;51.376;7.148;2023-05-23T01:54:26;6.37;;;5.70;;
10277;SDS011;5184;51.376;7.148;2023-05-23T01:56:55;6.63;;;5.87;;
10277;SDS011;5184;51.376;7.148;2023-05-23T01:59:21;6.00;;;5.40;;
10277;SDS011;5184;51.376;7.148;2023-05-23T02:01:48;6.43;;;5.77;;
10277;SDS011;5184;51.376;7.148;2023-05-23T02:04:15;5.70;;;5.20;;
10277;SDS011;5184;51.376;7.148;2023-05-23T02:06:41;6.00;;;5.40;;
10277;SDS011;5184;51.376;7.148;2023-05-23T02:09:08;5.83;;;5.07;;
10277;SDS011;5184;51.376;7.148;2023-05-23T02:11:35;6.07;;;5.40;;
10277;SDS011;5184;51.376;7.148;2023-05-23T02:14:03;6.77;;;5.47;;
10277;SDS011;5184;51.376;7.148;2023-05-23T02:16:30;5.90;;;5.33;;
10277;SDS011;5184;51.376;7.148;2023-05-23T02:18:57;6.07;;;5.47;;
10277;SDS011;5184;51.376;7.148;2023-05-23T02:21:25;6.00;;;5.40;;
10277;SDS011;5184;51.376;7.148;2023-05-23T02:23:52;7.00;;;6.30;;
10277;SDS011;5184;51.376;7.148;2023-05-23T02:26:19;7.97;;;6.40;;
10277;SDS011;5184;51.376;7.148;2023-05-23T02:28:46;7.73;;;6.00;;
10277;SDS011;5184;51.376;7.148;2023-05-23T02:31:13;7.23;;;6.47;;
10277;SDS011;5184;51.376;7.148;2023-05-23T02:33:39;10.27;;;6.60;;
10277;SDS011;5184;51.376;7.148;2023-05-23T02:36:07;6.53;;;5.90;;
10277;SDS011;5184;51.376;7.148;2023-05-23T02:38:34;8.93;;;6.77;;
10277;SDS011;5184;51.376;7.148;2023-05-23T02:41:01;8.87;;;6.97;;
10277;SDS011;5184;51.376;7.148;2023-05-23T02:43:29;8.43;;;7.00;;
10277;SDS011;5184;51.376;7.148;2023-05-23T02:45:55;7.43;;;6.73;;
10277;SDS011;5184;51.376;7.148;2023-05-23T02:48:22;9.83;;;7.37;;
10277;SDS011;5184;51.376;7.148;2023-05-23T02:50:48;8.77;;;7.70;;
10277;SDS011;5184;51.376;7.148;2023-05-23T02:53:15;8.60;;;7.70;;
10277;SDS011;5184;51.376;7.148;2023-05-23T02:55:42;9.80;;;7.53;;
10277;SDS011;5184;51.376;7.148;2023-05-23T02:58:09;8.27;;;7.40;;
10277;SDS011;5184;51.376;7.148;2023-05-23T03:00:36;8.57;;;7.60;;
10277;SDS011;5184;51.376;7.148;2023-05-23T03:03:04;8.80;;;7.40;;
10277;SDS011;5184;51.376;7.148;2023-05-23T03:05:30;9.83;;;7.67;;
10277;SDS011;5184;51.376;7.148;2023-05-23T03:07:58;8.53;;;6.43;;
10277;SDS011;5184;51.376;7.148;2023-05-23T03:10:24;9.00;;;7.10;;
10277;SDS011;5184;51.376;7.148;2023-05-23T03:12:51;10.47;;;7.30;;
10277;SDS011;5184;51.376;7.148;2023-05-23T03:15:17;9.43;;;7.07;;
10277;SDS011;5184;51.376;7.148;2023-05-23T03:17:44;10.13;;;6.97;;
10277;SDS011;5184;51.376;7.148;2023-05-23T03:22:34;11.00;;;6.73;;
10277;SDS011;5184;51.376;7.148;2023-05-23T03:25:01;7.80;;;6.17;;
10277;SDS011;5184;51.376;7.148;2023-05-23T03:27:28;9.87;;;6.63;;
10277;SDS011;5184;51.376;7.148;2023-05-23T03:29:57;9.20;;;6.30;;
10277;SDS011;5184;51.376;7.148;2023-05-23T03:32:24;7.57;;;5.80;;
10277;SDS011;5184;51.376;7.148;2023-05-23T03:34:51;6.93;;;6.00;;
10277;SDS011;5184;51.376;7.148;2023-05-23T03:37:20;6.70;;;5.93;;
10277;SDS011;5184;51.376;7.148;2023-05-23T03:39:46;7.07;;;6.37;;
10277;SDS011;5184;51.376;7.148;2023-05-23T03:42:13;8.23;;;6.40;;
10277;SDS011;5184;51.376;7.148;2023-05-23T03:44:39;10.00;;;6.70;;
10277;SDS011;5184;51.376;7.148;2023-05-23T03:47:06;9.73;;;6.47;;
10277;SDS011;5184;51.376;7.148;2023-05-23T03:49:32;8.33;;;6.60;;
10277;SDS011;5184;51.376;7.148;2023-05-23T03:52:00;9.73;;;7.17;;
10277;SDS011;5184;51.376;7.148;2023-05-23T03:54:27;9.03;;;7.40;;
10277;SDS011;5184;51.376;7.148;2023-05-23T03:56:54;8.13;;;7.33;;
10277;SDS011;5184;51.376;7.148;2023-05-23T03:59:20;11.33;;;8.73;;
10277;SDS011;5184;51.376;7.148;2023-05-23T04:01:47;9.83;;;7.90;;
10277;SDS011;5184;51.376;7.148;2023-05-23T04:04:14;10.27;;;8.47;;
10277;SDS011;5184;51.376;7.148;2023-05-23T04:06:41;9.33;;;7.67;;
10277;SDS011;5184;51.376;7.148;2023-05-23T04:09:08;10.17;;;8.97;;
10277;SDS011;5184;51.376;7.148;2023-05-23T04:11:36;13.23;;;9.73;;
10277;SDS011;5184;51.376;7.148;2023-05-23T04:14:03;10.27;;;8.97;;
10277;SDS011;5184;51.376;7.148;2023-05-23T04:16:30;10.83;;;9.73;;
10277;SDS011;5184;51.376;7.148;2023-05-23T04:18:56;12.47;;;9.40;;
10277;SDS011;5184;51.376;7.148;2023-05-23T04:21:23;12.63;;;10.50;;
10277;SDS011;5184;51.376;7.148;2023-05-23T04:23:49;13.23;;;11.80;;
10277;SDS011;5184;51.376;7.148;2023-05-23T04:26:16;13.93;;;11.60;;
10277;SDS011;5184;51.376;7.148;2023-05-23T04:28:43;13.53;;;11.83;;
10277;SDS011;5184;51.376;7.148;2023-05-23T04:31:11;16.17;;;11.63;;
10277;SDS011;5184;51.376;7.148;2023-05-23T04:33:38;15.07;;;12.57;;
10277;SDS011;5184;51.376;7.148;2023-05-23T04:36:05;15.10;;;12.53;;
10277;SDS011;5184;51.376;7.148;2023-05-23T04:38:32;14.90;;;12.63;;
10277;SDS011;5184;51.376;7.148;2023-05-23T04:40:59;13.43;;;11.47;;
10277;SDS011;5184;51.376;7.148;2023-05-23T04:43:25;14.43;;;11.43;;
10277;SDS011;5184;51.376;7.148;2023-05-23T04:45:53;14.73;;;11.70;;
10277;SDS011;5184;51.376;7.148;2023-05-23T04:48:20;14.53;;;11.17;;
10277;SDS011;5184;51.376;7.148;2023-05-23T04:50:47;15.07;;;11.07;;
10277;SDS011;5184;51.376;7.148;2023-05-23T04:53:14;15.90;;;12.00;;
10277;SDS011;5184;51.376;7.148;2023-05-23T04:55:41;16.47;;;11.97;;
10277;SDS011;5184;51.376;7.148;2023-05-23T04:58:07;15.47;;;11.73;;
10277;SDS011;5184;51.376;7.148;2023-05-23T05:00:35;14.17;;;10.80;;
10277;SDS011;5184;51.376;7.148;2023-05-23T05:03:02;14.20;;;11.93;;
10277;SDS011;5184;51.376;7.148;2023-05-23T05:05:29;12.67;;;11.30;;
10277;SDS011;5184;51.376;7.148;2023-05-23T05:07:56;12.57;;;11.13;;
10277;SDS011;5184;51.376;7.148;2023-05-23T05:10:23;16.70;;;11.90;;
10277;SDS011;5184;51.376;7.148;2023-05-23T05:12:49;14.13;;;11.00;;
10277;SDS011;5184;51.376;7.148;2023-05-23T05:15:17;15.00;;;11.70;;
10277;SDS011;5184;51.376;7.148;2023-05-23T05:17:44;13.97;;;10.70;;
10277;SDS011;5184;51.376;7.148;2023-05-23T05:20:11;14.97;;;11.10;;
10277;SDS011;5184;51.376;7.148;2023-05-23T05:22:38;15.13;;;11.37;;
10277;SDS011;5184;51.376;7.148;2023-05-23T05:25:06;14.13;;;11.57;;
10277;SDS011;5184;51.376;7.148;2023-05-23T05:27:33;14.20;;;11.20;;
10277;SDS011;5184;51.376;7.148;2023-05-23T05:29:59;16.57;;;12.73;;
10277;SDS011;5184;51.376;7.148;2023-05-23T05:32:27;14.50;;;12.80;;
10277;SDS011;5184;51.376;7.148;2023-05-23T05:34:53;16.37;;;13.17;;
10277;SDS011;5184;51.376;7.148;2023-05-23T05:37:21;14.77;;;12.40;;
10277;SDS011;5184;51.376;7.148;2023-05-23T05:39:48;15.13;;;12.63;;
10277;SDS011;5184;51.376;7.148;2023-05-23T05:42:16;14.03;;;11.03;;
10277;SDS011;5184;51.376;7.148;2023-05-23T05:44:42;14.23;;;11.10;;
10277;SDS011;5184;51.376;7.148;2023-05-23T05:47:09;13.07;;;11.53;;
10277;SDS011;5184;51.376;7.148;2023-05-23T05:49:35;15.83;;;11.47;;
10277;SDS011;5184;51.376;7.148;2023-05-23T05:52:03;13.73;;;11.17;;
10277;SDS011;5184;51.376;7.148;2023-05-23T05:54:30;15.30;;;11.23;;
10277;SDS011;5184;51.376;7.148;2023-05-23T05:56:58;14.53;;;11.13;;
10277;SDS011;5184;51.376;7.148;2023-05-23T05:59:25;15.63;;;11.97;;
10277;SDS011;5184;51.376;7.148;2023-05-23T06:01:52;14.80;;;12.47;;
10277;SDS011;5184;51.376;7.148;2023-05-23T06:04:18;16.73;;;13.30;;
10277;SDS011;5184;51.376;7.148;2023-05-23T06:06:45;18.50;;;13.57;;
10277;SDS011;5184;51.376;7.148;2023-05-23T06:09:12;17.37;;;14.13;;
10277;SDS011;5184;51.376;7.148;2023-05-23T06:11:40;17.87;;;13.57;;
10277;SDS011;5184;51.376;7.148;2023-05-23T06:14:06;19.00;;;14.00;;
10277;SDS011;5184;51.376;7.148;2023-05-23T06:16:33;19.93;;;15.67;;
10277;SDS011;5184;51.376;7.148;2023-05-23T06:18:59;18.60;;;15.60;;
10277;SDS011;5184;51.376;7.148;2023-05-23T06:21:26;18.87;;;16.20;;
10277;SDS011;5184;51.376;7.148;2023-05-23T06:23:53;17.70;;;15.77;;
10277;SDS011;5184;51.376;7.148;2023-05-23T06:26:19;17.93;;;15.63;;
10277;SDS011;5184;51.376;7.148;2023-05-23T06:28:47;18.20;;;14.97;;
10277;SDS011;5184;51.376;7.148;2023-05-23T06:31:14;16.13;;;13.90;;
10277;SDS011;5184;51.376;7.148;2023-05-23T06:33:41;14.97;;;13.20;;
10277;SDS011;5184;51.376;7.148;2023-05-23T06:36:07;20.47;;;14.40;;
10277;SDS011;5184;51.376;7.148;2023-05-23T06:38:34;14.77;;;13.23;;
10277;SDS011;5184;51.376;7.148;2023-05-23T06:41:01;17.23;;;14.47;;
10277;SDS011;5184;51.376;7.148;2023-05-23T06:43:28;16.70;;;13.67;;
10277;SDS011;5184;51.376;7.148;2023-05-23T06:45:55;16.47;;;14.07;;
10277;SDS011;5184;51.376;7.148;2023-05-23T06:48:22;15.27;;;13.33;;
10277;SDS011;5184;51.376;7.148;2023-05-23T06:50:48;15.33;;;12.67;;
10277;SDS011;5184;51.376;7.148;2023-05-23T06:53:16;12.40;;;11.07;;
10277;SDS011;5184;51.376;7.148;2023-05-23T06:55:43;11.90;;;8.73;;
10277;SDS011;5184;51.376;7.148;2023-05-23T06:58:10;10.97;;;9.23;;
10277;SDS011;5184;51.376;7.148;2023-05-23T07:00:37;9.50;;;7.67;;
10277;SDS011;5184;51.376;7.148;2023-05-23T07:03:04;9.87;;;8.20;;
10277;SDS011;5184;51.376;7.148;2023-05-23T07:05:30;9.77;;;7.50;;
10277;SDS011;5184;51.376;7.148;2023-05-23T07:07:57;10.57;;;7.70;;
10277;SDS011;5184;51.376;7.148;2023-05-23T07:10:23;9.87;;;7.83;;
10277;SDS011;5184;51.376;7.148;2023-05-23T07:12:51;9.90;;;7.40;;
10277;SDS011;5184;51.376;7.148;2023-05-23T07:15:18;9.80;;;7.97;;
10277;SDS011;5184;51.376;7.148;2023-05-23T07:17:45;8.73;;;7.73;;
10277;SDS011;5184;51.376;7.148;2023-05-23T07:20:13;9.33;;;7.90;;
10277;SDS011;5184;51.376;7.148;2023-05-23T07:22:39;9.67;;;8.00;;
10277;SDS011;5184;51.376;7.148;2023-05-23T07:25:06;11.63;;;9.00;;
10277;SDS011;5184;51.376;7.148;2023-05-23T07:27:33;10.67;;;8.57;;
10277;SDS011;5184;51.376;7.148;2023-05-23T07:30:00;11.17;;;8.90;;
10277;SDS011;5184;51.376;7.148;2023-05-23T07:32:27;10.03;;;8.00;;
10277;SDS011;5184;51.376;7.148;2023-05-23T07:34:54;10.40;;;8.73;;
10277;SDS011;5184;51.376;7.148;2023-05-23T07:37:22;10.13;;;8.07;;
10277;SDS011;5184;51.376;7.148;2023-05-23T07:39:48;10.70;;;8.57;;
10277;SDS011;5184;51.376;7.148;2023-05-23T07:42:15;15.07;;;8.97;;
10277;SDS011;5184;51.376;7.148;2023-05-23T07:44:41;12.73;;;9.17;;
10277;SDS011;5184;51.376;7.148;2023-05-23T07:47:09;13.17;;;8.93;;
10277;SDS011;5184;51.376;7.148;2023-05-23T07:49:36;11.07;;;8.77;;
10277;SDS011;5184;51.376;7.148;2023-05-23T07:52:04;13.90;;;9.07;;
10277;SDS011;5184;51.376;7.148;2023-05-23T07:54:30;12.53;;;8.63;;
10277;SDS011;5184;51.376;7.148;2023-05-23T07:56:57;12.17;;;8.20;;
10277;SDS011;5184;51.376;7.148;2023-05-23T07:59:23;13.63;;;9.37;;
10277;SDS011;5184;51.376;7.148;2023-05-23T08:01:50;13.53;;;8.43;;
10277;SDS011;5184;51.376;7.148;2023-05-23T08:04:17;13.87;;;8.27;;
10277;SDS011;5184;51.376;7.148;2023-05-23T08:06:44;10.40;;;7.83;;
10277;SDS011;5184;51.376;7.148;2023-05-23T08:09:11;12.60;;;8.00;;
10277;SDS011;5184;51.376;7.148;2023-05-23T08:11:38;13.30;;;9.57;;
10277;SDS011;5184;51.376;7.148;2023-05-23T08:14:04;13.87;;;9.13;;
10277;SDS011;5184;51.376;7.148;2023-05-23T08:16:31;15.70;;;9.10;;
10277;SDS011;5184;51.376;7.148;2023-05-23T08:18:58;13.73;;;8.70;;
10277;SDS011;5184;51.376;7.148;2023-05-23T08:21:25;15.93;;;9.80;;
10277;SDS011;5184;51.376;7.148;2023-05-23T08:23:53;11.80;;;8.63;;
10277;SDS011;5184;51.376;7.148;2023-05-23T08:26:20;12.60;;;9.10;;
10277;SDS011;5184;51.376;7.148;2023-05-23T08:28:47;12.13;;;8.17;;
10277;SDS011;5184;51.376;7.148;2023-05-23T08:31:14;14.37;;;8.50;;
10277;SDS011;5184;51.376;7.148;2023-05-23T08:33:42;15.83;;;9.53;;
10277;SDS011;5184;51.376;7.148;2023-05-23T08:36:08;10.43;;;8.93;;
10277;SDS011;5184;51.376;7.148;2023-05-23T08:38:35;15.00;;;9.23;;
10277;SDS011;5184;51.376;7.148;2023-05-23T08:41:01;14.67;;;10.97;;
10277;SDS011;5184;51.376;7.148;2023-05-23T08:43:28;20.90;;;15.57;;
10277;SDS011;5184;51.376;7.148;2023-05-23T08:45:55;22.67;;;16.50;;
10277;SDS011;5184;51.376;7.148;2023-05-23T08:48:22;19.63;;;14.93;;
10277;SDS011;5184;51.376;7.148;2023-05-23T08:50:49;20.13;;;14.23;;
10277;SDS011;5184;51.376;7.148;2023-05-23T08:53:15;17.60;;;12.77;;
10277;SDS011;5184;51.376;7.148;2023-05-23T08:55:45;20.13;;;13.30;;
10277;SDS011;5184;51.376;7.148;2023-05-23T08:58:12;15.50;;;11.90;;
10277;SDS011;5184;51.376;7.148;2023-05-23T09:00:38;15.90;;;11.60;;
10277;SDS011;5184;51.376;7.148;2023-05-23T09:03:05;14.53;;;11.83;;
10277;SDS011;5184;51.376;7.148;2023-05-23T09:05:31;12.63;;;10.93;;
10277;SDS011;5184;51.376;7.148;2023-05-23T09:07:58;13.77;;;9.83;;
10277;SDS011;5184;51.376;7.148;2023-05-23T09:10:25;12.10;;;9.80;;
10277;SDS011;5184;51.376;7.148;2023-05-23T09:12:52;15.90;;;11.90;;
10277;SDS011;5184;51.376;7.148;2023-05-23T09:15:18;15.77;;;12.07;;
10277;SDS011;5184;51.376;7.148;2023-05-23T09:17:45;15.23;;;11.00;;
10277;SDS011;5184;51.376;7.148;2023-05-23T09:20:13;14.97;;;10.77;;
10277;SDS011;5184;51.376;7.148;2023-05-23T09:22:39;18.67;;;15.47;;
10277;SDS011;5184;51.376;7.148;2023-05-23T09:25:06;21.13;;;14.73;;
10277;SDS011;5184;51.376;7.148;2023-05-23T09:27:33;18.07;;;16.17;;
10277;SDS011;5184;51.376;7.148;2023-05-23T09:30:04;21.83;;;15.90;;
10277;SDS011;5184;51.376;7.148;2023-05-23T09:32:26;20.10;;;14.90;;
10277;SDS011;5184;51.376;7.148;2023-05-23T09:34:54;19.80;;;15.90;;
10277;SDS011;5184;51.376;7.148;2023-05-23T09:37:20;18.13;;;15.53;;
10277;SDS011;5184;51.376;7.148;2023-05-23T09:39:46;20.07;;;15.17;;
10277;SDS011;5184;51.376;7.148;2023-05-23T09:42:18;24.57;;;15.20;;
10277;SDS011;5184;51.376;7.148;2023-05-23T09:44:44;22.17;;;15.47;;
10277;SDS011;5184;51.376;7.148;2023-05-23T09:47:11;20.53;;;15.33;;
10277;SDS011;5184;51.376;7.148;2023-05-23T09:49:38;20.00;;;14.90;;
10277;SDS011;5184;51.376;7.148;2023-05-23T09:52:04;22.23;;;13.93;;
10277;SDS011;5184;51.376;7.148;2023-05-23T09:54:31;22.20;;;13.60;;
10277;SDS011;5184;51.376;7.148;2023-05-23T09:56:58;20.10;;;12.23;;
10277;SDS011;5184;51.376;7.148;2023-05-23T09:59:27;17.03;;;11.20;;
10277;SDS011;5184;51.376;7.148;2023-05-23T10:01:53;17.73;;;10.83;;
10277;SDS011;5184;51.376;7.148;2023-05-23T10:04:20;14.43;;;10.37;;
10277;SDS011;5184;51.376;7.148;2023-05-23T10:06:49;14.23;;;9.93;;
10277;SDS011;5184;51.376;7.148;2023-05-23T10:09:16;16.13;;;9.83;;
10277;SDS011;5184;51.376;7.148;2023-05-23T10:11:57;11.67;;;9.17;;
10277;SDS011;5184;51.376;7.148;2023-05-23T10:14:14;15.13;;;10.00;;
10277;SDS011;5184;51.376;7.148;2023-05-23T10:19:26;14.30;;;8.67;;
10277;SDS011;5184;51.376;7.148;2023-05-23T10:21:56;13.50;;;9.03;;
10277;SDS011;5184;51.376;7.148;2023-05-23T10:24:23;13.73;;;8.40;;
10277;SDS011;5184;51.376;7.148;2023-05-23T10:26:51;12.70;;;8.07;;
10277;SDS011;5184;51.376;7.148;2023-05-23T10:29:17;11.37;;;7.47;;
10277;SDS011;5184;51.376;7.148;2023-05-23T10:31:44;12.10;;;7.97;;
10277;SDS011;5184;51.376;7.148;2023-05-23T10:34:15;9.43;;;8.07;;
10277;SDS011;5184;51.376;7.148;2023-05-23T10:36:44;14.67;;;8.40;;
10277;SDS011;5184;51.376;7.148;2023-05-23T10:39:13;12.10;;;9.30;;
10277;SDS011;5184;51.376;7.148;2023-05-23T10:41:42;13.53;;;7.73;;
10277;SDS011;5184;51.376;7.148;2023-05-23T10:44:14;12.60;;;8.40;;
10277;SDS011;5184;51.376;7.148;2023-05-23T10:46:50;14.10;;;9.57;;
10277;SDS011;5184;51.376;7.148;2023-05-23T10:49:18;13.57;;;9.30;;
10277;SDS011;5184;51.376;7.148;2023-05-23T10:51:47;10.60;;;8.60;;
10277;SDS011;5184;51.376;7.148;2023-05-23T10:54:14;12.80;;;8.57;;
10277;SDS011;5184;51.376;7.148;2023-05-23T10:56:41;12.60;;;8.20;;
10277;SDS011;5184;51.376;7.148;2023-05-23T10:59:07;13.83;;;9.97;;
10277;SDS011;5184;51.376;7.148;2023-05-23T11:01:38;11.60;;;8.83;;
10277;SDS011;5184;51.376;7.148;2023-05-23T11:04:04;14.47;;;8.13;;
10277;SDS011;5184;51.376;7.148;2023-05-23T11:06:30;11.77;;;7.33;;
10277;SDS011;5184;51.376;7.148;2023-05-23T11:09:01;11.33;;;7.50;;
10277;SDS011;5184;51.376;7.148;2023-05-23T11:14:10;11.77;;;7.70;;
10277;SDS011;5184;51.376;7.148;2023-05-23T11:16:40;11.63;;;7.87;;
10277;SDS011;5184;51.376;7.148;2023-05-23T11:21:49;10.90;;;6.80;;
10277;SDS011;5184;51.376;7.148;2023-05-23T11:24:15;8.27;;;7.27;;
10277;SDS011;5184;51.376;7.148;2023-05-23T11:29:16;10.40;;;5.93;;
10277;SDS011;5184;51.376;7.148;2023-05-23T11:31:43;9.63;;;6.40;;
10277;SDS011;5184;51.376;7.148;2023-05-23T11:34:09;8.20;;;6.00;;
10277;SDS011;5184;51.376;7.148;2023-05-23T11:36:36;12.17;;;6.43;;
10277;SDS011;5184;51.376;7.148;2023-05-23T11:39:02;8.77;;;5.67;;
10277;SDS011;5184;51.376;7.148;2023-05-23T11:41:30;8.47;;;6.20;;
10277;SDS011;5184;51.376;7.148;2023-05-23T11:43:57;10.03;;;5.60;;
10277;SDS011;5184;51.376;7.148;2023-05-23T11:46:24;10.27;;;5.30;;
10277;SDS011;5184;51.376;7.148;2023-05-23T11:48:52;6.37;;;4.50;;
10277;SDS011;5184;51.376;7.148;2023-05-23T11:51:18;8.27;;;4.90;;
10277;SDS011;5184;51.376;7.148;2023-05-23T11:53:45;5.90;;;4.17;;
10277;SDS011;5184;51.376;7.148;2023-05-23T11:56:13;9.07;;;4.20;;
10277;SDS011;5184;51.376;7.148;2023-05-23T11:58:38;7.67;;;4.90;;
10277;SDS011;5184;51.376;7.148;2023-05-23T12:01:06;6.53;;;4.90;;
10277;SDS011;5184;51.376;7.148;2023-05-23T12:03:33;7.43;;;4.50;;
10277;SDS011;5184;51.376;7.148;2023-05-23T12:06:00;8.97;;;4.60;;
10277;SDS011;5184;51.376;7.148;2023-05-23T12:08:27;8.07;;;4.97;;
10277;SDS011;5184;51.376;7.148;2023-05-23T12:10:56;12.67;;;5.50;;
10277;SDS011;5184;51.376;7.148;2023-05-23T12:13:24;12.10;;;5.80;;
10277;SDS011;5184;51.376;7.148;2023-05-23T12:15:52;9.27;;;5.63;;
10277;SDS011;5184;51.376;7.148;2023-05-23T12:18:18;10.97;;;5.43;;
10277;SDS011;5184;51.376;7.148;2023-05-23T12:20:47;9.90;;;5.60;;
10277;SDS011;5184;51.376;7.148;2023-05-23T12:23:18;9.93;;;5.80;;
10277;SDS011;5184;51.376;7.148;2023-05-23T12:25:44;10.37;;;5.13;;
10277;SDS011;5184;51.376;7.148;2023-05-23T12:28:11;9.60;;;4.73;;
10277;SDS011;5184;51.376;7.148;2023-05-23T12:30:40;9.27;;;4.40;;
10277;SDS011;5184;51.376;7.148;2023-05-23T12:33:07;6.43;;;4.20;;
10277;SDS011;5184;51.376;7.148;2023-05-23T12:35:33;11.67;;;4.70;;
10277;SDS011;5184;51.376;7.148;2023-05-23T12:38:00;8.40;;;4.30;;
10277;SDS011;5184;51.376;7.148;2023-05-23T12:40:27;9.77;;;4.53;;
10277;SDS011;5184;51.376;7.148;2023-05-23T12:42:54;7.37;;;4.17;;
10277;SDS011;5184;51.376;7.148;2023-05-23T12:45:23;8.73;;;4.20;;
10277;SDS011;5184;51.376;7.148;2023-05-23T12:47:49;7.87;;;4.37;;
10277;SDS011;5184;51.376;7.148;2023-05-23T12:50:17;6.77;;;4.70;;
10277;SDS011;5184;51.376;7.148;2023-05-23T12:52:43;9.93;;;5.20;;
10277;SDS011;5184;51.376;7.148;2023-05-23T12:55:10;8.40;;;5.33;;
10277;SDS011;5184;51.376;7.148;2023-05-23T12:57:36;9.70;;;5.13;;
10277;SDS011;5184;51.376;7.148;2023-05-23T13:00:03;9.93;;;4.67;;
10277;SDS011;5184;51.376;7.148;2023-05-23T13:02:31;8.23;;;4.77;;
10277;SDS011;5184;51.376;7.148;2023-05-23T13:04:58;10.03;;;4.87;;
10277;SDS011;5184;51.376;7.148;2023-05-23T13:07:25;8.80;;;5.13;;
10277;SDS011;5184;51.376;7.148;2023-05-23T13:09:52;7.93;;;4.17;;
10277;SDS011;5184;51.376;7.148;2023-05-23T13:12:18;9.17;;;4.90;;
10277;SDS011;5184;51.376;7.148;2023-05-23T13:14:45;11.70;;;5.37;;
10277;SDS011;5184;51.376;7.148;2023-05-23T13:17:11;8.63;;;4.97;;
10277;SDS011;5184;51.376;7.148;2023-05-23T13:19:39;8.60;;;5.10;;
10277;SDS011;5184;51.376;7.148;2023-05-23T13:22:06;11.37;;;5.13;;
10277;SDS011;5184;51.376;7.148;2023-05-23T13:24:34;12.90;;;5.20;;
10277;SDS011;5184;51.376;7.148;2023-05-23T13:27:00;12.40;;;5.13;;
10277;SDS011;5184;51.376;7.148;2023-05-23T13:29:27;8.40;;;4.97;;
10277;SDS011;5184;51.376;7.148;2023-05-23T13:31:53;6.97;;;4.17;;
10277;SDS011;5184;51.376;7.148;2023-05-23T13:34:21;9.10;;;4.67;;
10277;SDS011;5184;51.376;7.148;2023-05-23T13:36:48;9.77;;;4.60;;
10277;SDS011;5184;51.376;7.148;2023-05-23T13:39:15;9.67;;;5.40;;
10277;SDS011;5184;51.376;7.148;2023-05-23T13:41:43;10.20;;;4.97;;
10277;SDS011;5184;51.376;7.148;2023-05-23T13:44:09;9.53;;;5.03;;
10277;SDS011;5184;51.376;7.148;2023-05-23T13:46:36;9.83;;;4.60;;
10277;SDS011;5184;51.376;7.148;2023-05-23T13:49:03;12.30;;;4.80;;
10277;SDS011;5184;51.376;7.148;2023-05-23T13:51:29;12.57;;;4.80;;
10277;SDS011;5184;51.376;7.148;2023-05-23T14:07:14;8.27;;;4.47;;
10277;SDS011;5184;51.376;7.148;2023-05-23T14:09:40;9.13;;;4.70;;
10277;SDS011;5184;51.376;7.148;2023-05-23T14:12:07;11.50;;;4.80;;
10277;SDS011;5184;51.376;7.148;2023-05-23T14:14:34;10.40;;;4.33;;
10277;SDS011;5184;51.376;7.148;2023-05-23T14:17:01;9.00;;;4.13;;
10277;SDS011;5184;51.376;7.148;2023-05-23T14:19:28;11.03;;;4.33;;
10277;SDS011;5184;51.376;7.148;2023-05-23T14:21:54;8.00;;;4.10;;
10277;SDS011;5184;51.376;7.148;2023-05-23T14:24:22;9.20;;;3.90;;
10277;SDS011;5184;51.376;7.148;2023-05-23T14:26:48;10.30;;;4.00;;
10277;SDS011;5184;51.376;7.148;2023-05-23T14:29:15;7.60;;;3.77;;
10277;SDS011;5184;51.376;7.148;2023-05-23T14:31:41;10.77;;;4.00;;
10277;SDS011;5184;51.376;7.148;2023-05-23T14:34:09;12.53;;;4.10;;
10277;SDS011;5184;51.376;7.148;2023-05-23T14:36:36;8.63;;;3.97;;
10277;SDS011;5184;51.376;7.148;2023-05-23T14:39:03;9.30;;;3.97;;
10277;SDS011;5184;51.376;7.148;2023-05-23T14:41:29;7.63;;;3.97;;
10277;SDS011;5184;51.376;7.148;2023-05-23T14:43:56;10.20;;;4.23;;
10277;SDS011;5184;51.376;7.148;2023-05-23T14:46:22;9.73;;;4.17;;
10277;SDS011;5184;51.376;7.148;2023-05-23T14:48:49;10.23;;;3.97;;
10277;SDS011;5184;51.376;7.148;2023-05-23T14:51:16;8.40;;;3.93;;
10277;SDS011;5184;51.376;7.148;2023-05-23T14:53:47;9.83;;;4.37;;
10277;SDS011;5184;51.376;7.148;2023-05-23T14:56:14;8.57;;;3.63;;
10277;SDS011;5184;51.376;7.148;2023-05-23T14:58:40;8.67;;;4.10;;
10277;SDS011;5184;51.376;7.148;2023-05-23T15:01:07;5.67;;;3.37;;
10277;SDS011;5184;51.376;7.148;2023-05-23T15:03:34;7.63;;;3.50;;
10277;SDS011;5184;51.376;7.148;2023-05-23T15:06:02;12.00;;;3.83;;
10277;SDS011;5184;51.376;7.148;2023-05-23T15:08:28;7.07;;;3.67;;
10277;SDS011;5184;51.376;7.148;2023-05-23T15:10:55;11.37;;;3.73;;
10277;SDS011;5184;51.376;7.148;2023-05-23T15:13:21;9.63;;;3.63;;
10277;SDS011;5184;51.376;7.148;2023-05-23T15:15:48;11.17;;;3.93;;